Dong Fang Chun — BRZL — position and weather

sailwx.info

Track history (hours):
 
Tides and Currents Weather Stations Pressure Air Temp Water Temp Dewpoint Dewpoint Depression Visibility Wind Speed Wind Dir Waves Ship Positions

Dong Fang Chun

Last reported at 2015-Mar-03 09:04 UTC. Time now 2015-Mar-03 11:11 UTC.
Position N 22°21' E 113°47'.

Length 23 m; draft 1.4 m.

Type: High speed craft. MMSI: 412461320.

Date/timePositionNaut miles runAvg speedWind from/ knotsBaromVisibWave heightAir tempDewpointWater temp
2015-Mar-03 09:04N 22°21' E 113°47'1120.9
2015-Mar-03 08:33N 22°29' E 113°55'0 0.0
2015-Mar-03 05:33N 22°29' E 113°55'10 4.7
2015-Mar-03 03:30N 22°22' E 113°47'8 8.0
2015-Mar-03 02:33N 22°26' E 113°54'2115.4
2015-Mar-03 01:12N 22°14' E 113°35'1521.0
2015-Mar-03 00:30N 22°22' E 113°49'8 9.1
2015-Mar-02 23:33N 22°29' E 113°55'0 0.0
2015-Mar-02 06:33N 22°29' E 113°55'0 0.1
2015-Mar-02 03:33N 22°29' E 113°55'2315.5
2015-Mar-02 02:04N 22°14' E 113°35'1912.5
2015-Mar-02 00:33N 22°25' E 113°52'4 4.4
2015-Mar-01 23:33N 22°29' E 113°55'0 0.0
2015-Feb-28 09:16N 22°29' E 113°55'0 0.0
2015-Feb-28 08:33N 22°29' E 113°55'0 0.0
2015-Feb-28 07:33N 22°29' E 113°55'0 0.0
2015-Feb-28 06:34N 22°29' E 113°55'0 0.0
2015-Feb-28 05:34N 22°29' E 113°55'0 0.0
2015-Feb-28 04:33N 22°29' E 113°55'0 0.0
2015-Feb-28 03:33N 22°29' E 113°55'5 4.9
2015-Feb-28 02:33N 22°25' E 113°52'5 2.4
2015-Feb-28 00:31N 22°22' E 113°48'10 9.9
2015-Feb-27 23:33N 22°29' E 113°55'0 0.0
2015-Feb-27 14:07N 22°29' E 113°55'1 0.6
2015-Feb-27 12:33N 22°28' E 113°55'1 0.4
2015-Feb-27 10:33N 22°29' E 113°55'0 0.0
2015-Feb-27 08:33N 22°29' E 113°55'0 0.1
2015-Feb-27 07:33N 22°29' E 113°55'0 0.0
2015-Feb-26 09:29N 22°29' E 113°55'0 0.0
2015-Feb-26 08:34N 22°29' E 113°55'0 0.0
2015-Feb-26 07:33N 22°29' E 113°55'0 0.0
2015-Feb-26 06:33N 22°29' E 113°55'0 0.0
2015-Feb-26 05:33N 22°29' E 113°55'0 0.0
2015-Feb-26 04:33N 22°29' E 113°55'0 0.0
2015-Feb-26 03:33N 22°29' E 113°55'0 0.0
2015-Feb-26 02:33N 22°29' E 113°55'0 0.0
2015-Feb-26 01:33N 22°29' E 113°55'5 0.4
2015-Feb-25 11:14N 22°24' E 113°52'1 0.5
2015-Feb-25 08:21N 22°25' E 113°53'4 0.6
2015-Feb-25 02:33N 22°29' E 113°55'0 0.0
2015-Feb-25 01:33N 22°29' E 113°55'0 0.0
2015-Feb-25 00:33N 22°29' E 113°55'0 0.0
2015-Feb-24 14:22N 22°29' E 113°55'0 0.0
2015-Feb-24 12:33N 22°29' E 113°55'5 3.6
2015-Feb-24 11:10N 22°24' E 113°54'4 6.2
2015-Feb-24 10:33N 22°28' E 113°55'1 0.6
2015-Feb-24 08:33N 22°29' E 113°55'4 1.3
2015-Feb-24 05:30N 22°25' E 113°52'4 4.3
2015-Feb-24 04:33N 22°29' E 113°55'10 4.4
2015-Feb-24 02:16N 22°21' E 113°47'1014.0
2015-Feb-24 01:33N 22°29' E 113°55'0 0.0
2015-Feb-24 00:33N 22°29' E 113°55'0 0.0
2015-Feb-23 12:26N 22°29' E 113°55'0 0.0
2015-Feb-23 10:34N 22°29' E 113°55'5 4.3
2015-Feb-23 09:21N 22°24' E 113°54'2 2.8
2015-Feb-23 08:33N 22°26' E 113°53'1 0.6
2015-Feb-23 06:24N 22°25' E 113°52'0 0.0
2015-Feb-23 03:27N 22°25' E 113°52'17 9.0
2015-Feb-23 01:34N 22°16' E 113°37'2121.1
2015-Feb-23 00:33N 22°29' E 113°55'0 0.2
2015-Feb-22 23:33N 22°29' E 113°55'4 0.3
2015-Feb-22 12:33N 22°25' E 113°54'20 9.0
2015-Feb-22 10:19N 22°14' E 113°35'1922.3
2015-Feb-22 09:27N 22°25' E 113°53'4 1.4
2015-Feb-22 06:33N 22°28' E 113°55'2316.9
2015-Feb-22 05:12N 22°14' E 113°35'1816.1
2015-Feb-22 04:06N 22°24' E 113°51'610.3
2015-Feb-22 03:33N 22°29' E 113°55'2221.6
2015-Feb-22 02:33N 22°15' E 113°36'1914.6
2015-Feb-22 01:16N 22°26' E 113°53'4 4.9
2015-Feb-22 00:33N 22°29' E 113°55'0 0.0
2015-Feb-21 23:33N 22°29' E 113°55'2 0.2
2015-Feb-21 11:33N 22°27' E 113°54'2116.4
2015-Feb-21 10:15N 22°14' E 113°35'2022.3
2015-Feb-21 09:21N 22°26' E 113°53'  
Track history (hours):
 
Tides and Currents Weather Stations Pressure Air Temp Water Temp Dewpoint Dewpoint Depression Visibility Wind Speed Wind Dir Waves Ship Positions

Dong Fang Chun

Last reported at 2015-Mar-03 09:04 UTC. Time now 2015-Mar-03 11:11 UTC.
Position N 22°21' E 113°47'.

Length 23 m; draft 1.4 m.

Type: High speed craft. MMSI: 412461320.

Date/timePositionNaut miles runAvg speedWind from/ knotsBaromVisibWave heightAir tempDewpointWater temp
2015-Mar-03 09:04N 22°21' E 113°47'1120.9
2015-Mar-03 08:33N 22°29' E 113°55'0 0.0
2015-Mar-03 05:33N 22°29' E 113°55'10 4.7
2015-Mar-03 03:30N 22°22' E 113°47'8 8.0
2015-Mar-03 02:33N 22°26' E 113°54'2115.4
2015-Mar-03 01:12N 22°14' E 113°35'1521.0
2015-Mar-03 00:30N 22°22' E 113°49'8 9.1
2015-Mar-02 23:33N 22°29' E 113°55'0 0.0
2015-Mar-02 06:33N 22°29' E 113°55'0 0.1
2015-Mar-02 03:33N 22°29' E 113°55'2315.5
2015-Mar-02 02:04N 22°14' E 113°35'1912.5
2015-Mar-02 00:33N 22°25' E 113°52'4 4.4
2015-Mar-01 23:33N 22°29' E 113°55'0 0.0
2015-Feb-28 09:16N 22°29' E 113°55'0 0.0
2015-Feb-28 08:33N 22°29' E 113°55'0 0.0
2015-Feb-28 07:33N 22°29' E 113°55'0 0.0
2015-Feb-28 06:34N 22°29' E 113°55'0 0.0
2015-Feb-28 05:34N 22°29' E 113°55'0 0.0
2015-Feb-28 04:33N 22°29' E 113°55'0 0.0
2015-Feb-28 03:33N 22°29' E 113°55'5 4.9
2015-Feb-28 02:33N 22°25' E 113°52'5 2.4
2015-Feb-28 00:31N 22°22' E 113°48'10 9.9
2015-Feb-27 23:33N 22°29' E 113°55'0 0.0
2015-Feb-27 14:07N 22°29' E 113°55'1 0.6
2015-Feb-27 12:33N 22°28' E 113°55'1 0.4
2015-Feb-27 10:33N 22°29' E 113°55'0 0.0
2015-Feb-27 08:33N 22°29' E 113°55'0 0.1
2015-Feb-27 07:33N 22°29' E 113°55'0 0.0
2015-Feb-26 09:29N 22°29' E 113°55'0 0.0
2015-Feb-26 08:34N 22°29' E 113°55'0 0.0
2015-Feb-26 07:33N 22°29' E 113°55'0 0.0
2015-Feb-26 06:33N 22°29' E 113°55'0 0.0
2015-Feb-26 05:33N 22°29' E 113°55'0 0.0
2015-Feb-26 04:33N 22°29' E 113°55'0 0.0
2015-Feb-26 03:33N 22°29' E 113°55'0 0.0
2015-Feb-26 02:33N 22°29' E 113°55'0 0.0
2015-Feb-26 01:33N 22°29' E 113°55'5 0.4
2015-Feb-25 11:14N 22°24' E 113°52'1 0.5
2015-Feb-25 08:21N 22°25' E 113°53'4 0.6
2015-Feb-25 02:33N 22°29' E 113°55'0 0.0
2015-Feb-25 01:33N 22°29' E 113°55'0 0.0
2015-Feb-25 00:33N 22°29' E 113°55'0 0.0
2015-Feb-24 14:22N 22°29' E 113°55'0 0.0
2015-Feb-24 12:33N 22°29' E 113°55'5 3.6
2015-Feb-24 11:10N 22°24' E 113°54'4 6.2
2015-Feb-24 10:33N 22°28' E 113°55'1 0.6
2015-Feb-24 08:33N 22°29' E 113°55'4 1.3
2015-Feb-24 05:30N 22°25' E 113°52'4 4.3
2015-Feb-24 04:33N 22°29' E 113°55'10 4.4
2015-Feb-24 02:16N 22°21' E 113°47'1014.0
2015-Feb-24 01:33N 22°29' E 113°55'0 0.0
2015-Feb-24 00:33N 22°29' E 113°55'0 0.0
2015-Feb-23 12:26N 22°29' E 113°55'0 0.0
2015-Feb-23 10:34N 22°29' E 113°55'5 4.3
2015-Feb-23 09:21N 22°24' E 113°54'2 2.8
2015-Feb-23 08:33N 22°26' E 113°53'1 0.6
2015-Feb-23 06:24N 22°25' E 113°52'0 0.0
2015-Feb-23 03:27N 22°25' E 113°52'17 9.0
2015-Feb-23 01:34N 22°16' E 113°37'2121.1
2015-Feb-23 00:33N 22°29' E 113°55'0 0.2
2015-Feb-22 23:33N 22°29' E 113°55'4 0.3
2015-Feb-22 12:33N 22°25' E 113°54'20 9.0
2015-Feb-22 10:19N 22°14' E 113°35'1922.3
2015-Feb-22 09:27N 22°25' E 113°53'4 1.4
2015-Feb-22 06:33N 22°28' E 113°55'2316.9
2015-Feb-22 05:12N 22°14' E 113°35'1816.1
2015-Feb-22 04:06N 22°24' E 113°51'610.3
2015-Feb-22 03:33N 22°29' E 113°55'2221.6
2015-Feb-22 02:33N 22°15' E 113°36'1914.6
2015-Feb-22 01:16N 22°26' E 113°53'4 4.9
2015-Feb-22 00:33N 22°29' E 113°55'0 0.0
2015-Feb-21 23:33N 22°29' E 113°55'2 0.2
2015-Feb-21 11:33N 22°27' E 113°54'2116.4
2015-Feb-21 10:15N 22°14' E 113°35'2022.3
2015-Feb-21 09:21N 22°26' E 113°53'  

Dump ship's entire track history